Kildare, Ireland
Current Conditions -  °F | °C
As of 6:00 AM on Saturday 25 Oct 2014 (Local Time) from EIME Reporting Station
Scattered Clouds Scattered Clouds  
Wind Chill: 41°   Ceiling: Unl
Heat Index: 48°   Visibility: 6mi
Dew Point: 45°   Wind: 22mph
Humidity: 87%   Direction: 220°SW
Pressure: 29.8"   Gusts: NA
Location:  53.16°N, 6.99°W
Report Text: EIME 250600Z 22019KT 9999 FEW024 SCT045 09/07 Q1009
Loading
Personal Weather Stations






























Interactive Weather Map
Tropical Storm Tracking
New forecast layout! Learn more

10-Day Weather Forecast

Advertisements
Track Severe Weather on mobile